• METAR

    LHBP Budapest Liszt Ferenc repülőtér METAR

    LHBP 180330Z 09005KT 060V130 CAVOK 17/10 Q1012 NOSIG

    QNH légnyomás:1012hpa
    Hőmérséklet/temperature: 17°C
    Harmatpont/Dew Point Temp: 10°C

    LHDC Debreceni repülőtér METAR

    LHDC 180315Z AUTO VRB02KT CAVOK 14/10 Q1012 NOSIG

    QNH légnyomás:1012hpa
    Hőmérskélet/temperature: 14°C
    Harmatpont/Dew Point Temp: 10°C

    LHPR Győr-pér repülőtér METAR

    LHPR 180315Z AUTO 11004KT CAVOK 14/12 Q1011

    QNH légnyomás:1011hpa
    Hőmérskélet/temperature: 14°C
    Harmatpont/Dew Point Temp: 12°C

    lhsm Sármellék repülőtér METAR

    LHSM 180315Z AUTO 34007KT 9000 NSC 17/15 Q1011

    QNH légnyomás:1011hpa
    Hőmérskélet/temperature: 17°C
    Harmatpont/Dew Point Temp: 15°C

    lhpp Pécs-pogány repülőtér METAR

    LHPP 171645Z 35005KT CAVOK 26/11 Q1012

    QNH légnyomás:1012hpa
    Hőmérskélet/temperature: 26°C
    Harmatpont/Dew Point Temp: 11°C

    LHKE Kecskemét repülőtér METAR

    LHKE 180315Z 33004KT CAVOK 12/10 Q1012 NOSIG RMK BLU

    QNH légnyomás:1012hpa
    Hőmérskélet/temperature: 12°C
    Harmatpont/Dew Point Temp: 10°C

    LHSN Szolnok repülőtér METAR

    LHSN 180315Z 06006KT CAVOK 12/12 Q1011 NOSIG RMK BLU

    QNH légnyomás:1011hpa
    Hőmérskélet/temperature: 12°C
    Harmatpont/Dew Point Temp: 12°C

    LHUD szeged repülőtér METAR

    LHUD 032345Z 35004KT CAVOK 18/13 Q1019

    QNH légnyomás:1019hpa
    Hőmérskélet/temperature: 18°C
    Harmatpont/Dew Point Temp: 13°C

  • TÉRKÉPEK

    Felhőkép

    Széltérkép

    Hőtérkép

    radarkép

    map

    map

  • Műholdképek

    Magyarország műholdkép

    Europa műholdkép

    Europa szinoptikus térkép

  • ELTE ELŐREJELZÉS (2 NAP LHBP)

    2 napos légnyomás előrejelzés Budapest LHBP

    2 napos szél előrejelzés Budapest LHBP

    2 napos termik trigger előrejelzés Budapest LHBP

    2 napos felhőzet előrejelzés Budapest LHBP

    2 napos thermal index profile előrejelzés Budapest LHBP

    2 napos átlag emelés előrejelzés Budapest LHBP

    2 napos felhő alap előrejelzés Budapest LHBP

    2 napos hőmérséklet advekció előrejelzés Budapest LHBP

  • VILLÁMRADAR

  • ELŐREJELZÉS

  • WINDFINDER ELŐREJELZÉS

  • RIASZTÁS - VÉSZJELZÉS

Repülésmeteorológia, aktuális időjárási helyzet és előrejelzés

Repülésmeteorológia, várható időjárás jelentések, előrejelzések és riasztások. METAR, TAF adatok, aktuális időjárás helyzetek és térképek.

A meteorológia kialakulásában és fejlődésében kiemelt szerep jutott a repülésnek, illetve a repülés technikai fejlődésének. A repülésmeteorológia elsődlegesen a repülés biztonságát, másodlagosan a repülés gazdaságosságát hivatott szolgálni. Eleinte a katonai repülőgépeknek, később a polgári repülésnek, ma már a sportrepülő pilótáknak, és a mezőgazdasági pilótáknak is egyaránt szükségük van a naprakész meteorológiai információkra.

Repülésmeteorológia oldalunkon összegyűjtöttük a legnépszerűbb és legjobb időjárás oldalak hivatkozásait, hogy repülés előtt vagy akár közben minden fontos forrást egyszerűen és gyorsan megtalálj. Magyarország várható időjárása, légállapoti diagramok, termik előrejelzés, METAR adatok, vészjelzések és figyelmeztetések. A képernyő szélén közvetlenül pedig pozíciód aktuális időjárási paramétereit is megtalálod.

JOGI NYILATKOZAT

Az oldal használatával a látogató elfogadja az alábbi felhasználási feltételeket:

Az oldalon feltüntetett repülésmeteorológia információkat mindenki csak saját felelősségre használhatja. A feltüntetett külső forrásokból származó információk pontosságáért és tartalmáért, valamint az esetlegesen ebből adódó bármilyen káresemény kapcsán a FLYTIME.HU nem vállal felelősséget!